createdAt,value
2024-04-14T00:01:16.505Z,4.57
2024-04-14T00:03:44.155Z,4.57
2024-04-14T00:06:29.520Z,3.90
2024-04-14T00:09:08.158Z,3.80
2024-04-14T00:11:39.553Z,4.20
2024-04-14T00:14:20.876Z,3.70
2024-04-14T00:16:51.229Z,4.10
2024-04-14T00:19:25.757Z,3.87
2024-04-14T00:21:56.485Z,4.10
2024-04-14T00:24:28.798Z,4.80
2024-04-14T00:26:58.164Z,4.13
2024-04-14T00:29:40.403Z,4.27
2024-04-14T00:32:10.564Z,3.70
2024-04-14T00:34:46.133Z,4.20
2024-04-14T00:37:20.438Z,4.10
2024-04-14T00:39:58.145Z,3.90
2024-04-14T00:45:35.281Z,4.10
2024-04-14T00:48:20.782Z,4.23
2024-04-14T00:50:52.767Z,4.37
2024-04-14T00:53:23.428Z,4.50
2024-04-14T00:55:56.180Z,4.20
2024-04-14T00:58:26.927Z,4.40
2024-04-14T01:01:02.987Z,4.47
2024-04-14T01:03:30.545Z,3.77
2024-04-14T01:06:09.592Z,4.37
2024-04-14T01:08:43.595Z,4.20
2024-04-14T01:11:17.029Z,4.20
2024-04-14T01:13:55.139Z,4.10
2024-04-14T01:16:40.875Z,3.80
2024-04-14T01:22:06.270Z,4.00
2024-04-14T01:24:35.185Z,3.97
2024-04-14T01:27:15.638Z,4.27
2024-04-14T01:29:46.488Z,5.43
2024-04-14T01:32:21.910Z,4.97
2024-04-14T01:34:53.818Z,4.10
2024-04-14T01:37:32.941Z,4.13
2024-04-14T01:40:03.657Z,4.40
2024-04-14T01:42:40.747Z,4.60
2024-04-14T01:47:56.607Z,4.70
2024-04-14T01:50:26.208Z,3.90
2024-04-14T01:53:13.249Z,4.77
2024-04-14T01:55:49.350Z,4.60
2024-04-14T01:58:30.509Z,4.40
2024-04-14T02:01:01.376Z,4.47
2024-04-14T02:03:43.450Z,4.43
2024-04-14T02:06:15.256Z,4.40
2024-04-14T02:08:47.955Z,4.30
2024-04-14T02:11:20.858Z,4.33
2024-04-14T02:13:58.419Z,4.33
2024-04-14T02:16:27.731Z,4.70
2024-04-14T02:19:09.036Z,4.50
2024-04-14T02:21:39.281Z,4.20
2024-04-14T02:24:11.211Z,5.13
2024-04-14T02:26:42.852Z,4.90
2024-04-14T02:29:18.056Z,5.10
2024-04-14T02:31:46.505Z,4.63
2024-04-14T02:34:24.426Z,4.20
2024-04-14T02:36:54.068Z,4.27
2024-04-14T02:39:28.624Z,3.83
2024-04-14T02:41:55.983Z,4.17
2024-04-14T02:44:40.583Z,4.30
2024-04-14T02:50:06.542Z,4.30
2024-04-14T02:52:35.481Z,4.17
2024-04-14T02:55:08.884Z,4.50
2024-04-14T02:57:40.591Z,4.90
2024-04-14T03:00:19.071Z,4.57
2024-04-14T03:02:47.645Z,4.30
2024-04-14T03:05:33.177Z,3.80
2024-04-14T03:08:12.295Z,3.50
2024-04-14T03:10:44.961Z,4.43
2024-04-14T03:13:14.066Z,4.17
2024-04-14T03:16:04.146Z,5.13
2024-04-14T03:18:33.073Z,4.73
2024-04-14T03:21:14.551Z,4.40
2024-04-14T03:23:44.505Z,4.00
2024-04-14T03:26:15.734Z,5.77
2024-04-14T03:28:44.349Z,4.80
2024-04-14T03:31:38.266Z,4.80
2024-04-14T03:34:07.937Z,4.80
2024-04-14T03:36:40.899Z,4.80
2024-04-14T03:39:12.618Z,4.80
2024-04-14T03:41:49.044Z,4.83
2024-04-14T03:44:21.968Z,4.60
2024-04-14T03:47:03.653Z,4.43
2024-04-14T03:49:38.474Z,4.90
2024-04-14T03:52:07.161Z,3.97
2024-04-14T03:54:41.732Z,4.27
2024-04-14T03:57:12.428Z,4.47
2024-04-14T03:59:55.574Z,4.53
2024-04-14T04:02:35.258Z,4.40
2024-04-14T04:05:12.622Z,4.70
2024-04-14T04:08:09.204Z,5.50
2024-04-14T04:10:41.050Z,4.40
2024-04-14T04:13:11.414Z,5.07
2024-04-14T04:15:43.244Z,4.10
2024-04-14T04:18:28.610Z,4.00
2024-04-14T04:21:07.219Z,4.60
2024-04-14T04:23:36.587Z,4.30
2024-04-14T04:26:15.726Z,4.10
2024-04-14T04:28:44.406Z,4.20
2024-04-14T04:31:18.604Z,4.40
2024-04-14T04:33:53.080Z,4.10
2024-04-14T04:36:27.833Z,4.07
2024-04-14T04:39:06.299Z,4.60
2024-04-14T04:41:53.050Z,5.00
2024-04-14T04:44:25.012Z,4.90
2024-04-14T04:46:53.743Z,4.17
2024-04-14T04:49:34.312Z,4.47
2024-04-14T04:52:02.602Z,4.43
2024-04-14T04:54:35.627Z,4.40
2024-04-14T04:57:05.079Z,4.60
2024-04-14T04:59:44.535Z,4.80
2024-04-14T05:02:14.820Z,4.20
2024-04-14T05:04:52.935Z,4.87
2024-04-14T05:07:25.028Z,4.20
2024-04-14T05:09:57.253Z,5.07
2024-04-14T05:12:27.277Z,4.10
2024-04-14T05:14:57.678Z,4.67
2024-04-14T05:17:27.295Z,4.03
2024-04-14T05:20:07.351Z,4.77
2024-04-14T05:22:39.295Z,4.10
2024-04-14T05:25:17.907Z,5.20
2024-04-14T05:27:47.645Z,4.57
2024-04-14T05:30:20.526Z,4.67
2024-04-14T05:32:51.322Z,4.00
2024-04-14T05:35:28.341Z,3.90
2024-04-14T05:37:59.121Z,4.67
2024-04-14T05:40:32.838Z,3.83
2024-04-14T05:43:02.150Z,4.20
2024-04-14T05:45:35.611Z,4.80
2024-04-14T05:48:09.982Z,4.40
2024-04-14T05:50:52.759Z,4.40
2024-04-14T05:53:25.149Z,4.23
2024-04-14T05:55:57.295Z,4.20
2024-04-14T05:58:26.143Z,4.80
2024-04-14T06:01:08.255Z,4.70
2024-04-14T06:03:36.632Z,5.00
2024-04-14T06:06:16.235Z,4.30
2024-04-14T06:08:48.426Z,4.50
2024-04-14T06:11:36.722Z,4.53
2024-04-14T06:14:07.781Z,3.93
2024-04-14T06:17:08.750Z,3.83
2024-04-14T06:19:40.603Z,3.97
2024-04-14T06:22:13.359Z,3.77
2024-04-14T06:24:43.572Z,2.97
2024-04-14T06:27:21.738Z,3.93
2024-04-14T06:29:51.367Z,3.83
2024-04-14T06:32:31.850Z,3.70
2024-04-14T06:35:02.955Z,3.80
2024-04-14T06:37:42.745Z,3.67
2024-04-14T06:40:11.612Z,3.90
2024-04-14T06:42:52.813Z,3.93
2024-04-14T06:45:22.690Z,3.73
2024-04-14T06:47:55.631Z,3.10
2024-04-14T06:50:27.545Z,3.80
2024-04-14T06:53:10.028Z,3.20
2024-04-14T06:55:37.917Z,3.67
2024-04-14T06:58:11.623Z,3.27
2024-04-14T07:00:43.971Z,3.40
2024-04-14T07:03:23.036Z,3.23
2024-04-14T07:08:47.984Z,3.43
2024-04-14T07:11:20.655Z,3.33
2024-04-14T07:13:59.045Z,3.00
2024-04-14T07:16:30.529Z,3.50
2024-04-14T07:19:00.956Z,3.50
2024-04-14T07:21:28.521Z,3.43
2024-04-14T07:24:04.675Z,3.30
2024-04-14T07:26:34.910Z,3.80
2024-04-14T07:29:06.860Z,3.50
2024-04-14T07:31:33.892Z,3.13
2024-04-14T07:34:07.187Z,3.00
2024-04-14T07:36:38.870Z,3.17
2024-04-14T07:39:25.055Z,2.80
2024-04-14T07:41:53.330Z,2.90
2024-04-14T07:44:27.585Z,3.10
2024-04-14T07:46:57.653Z,2.80
2024-04-14T07:49:39.929Z,2.87
2024-04-14T07:52:22.485Z,2.90
2024-04-14T07:54:57.938Z,2.53
2024-04-14T07:57:39.747Z,2.67
2024-04-14T08:00:11.914Z,2.90
2024-04-14T08:02:49.313Z,2.43
2024-04-14T08:05:17.670Z,2.83
2024-04-14T08:07:48.419Z,2.70
2024-04-14T08:10:31.182Z,2.40
2024-04-14T08:13:09.363Z,2.67
2024-04-14T08:15:39.148Z,2.87
2024-04-14T08:18:11.542Z,2.70
2024-04-14T08:20:45.734Z,3.03
2024-04-14T08:23:35.527Z,2.70
2024-04-14T08:26:18.053Z,2.67
2024-04-14T08:28:50.149Z,2.13
2024-04-14T08:31:23.193Z,2.50
2024-04-14T08:33:53.841Z,2.17
2024-04-14T08:36:24.795Z,2.43
2024-04-14T08:39:08.001Z,2.20
2024-04-14T08:41:52.312Z,2.43
2024-04-14T08:44:30.723Z,2.40
2024-04-14T08:47:01.501Z,3.10
2024-04-14T08:49:49.015Z,2.27
2024-04-14T08:52:19.444Z,2.50
2024-04-14T08:54:52.181Z,2.63
2024-04-14T08:57:28.254Z,2.50
2024-04-14T09:00:05.359Z,2.10
2024-04-14T09:02:34.389Z,2.47
2024-04-14T09:05:12.021Z,2.63
2024-04-14T09:07:41.272Z,2.70
2024-04-14T09:10:15.507Z,3.00
2024-04-14T09:12:55.315Z,2.47
2024-04-14T09:15:31.539Z,2.80
2024-04-14T09:18:00.526Z,2.70
2024-04-14T09:20:37.470Z,2.40
2024-04-14T09:23:05.987Z,2.40
2024-04-14T09:25:47.516Z,2.60
2024-04-14T09:28:30.197Z,2.03
2024-04-14T09:30:58.234Z,2.50
2024-04-14T09:33:36.622Z,2.20
2024-04-14T09:36:07.415Z,2.20
2024-04-14T09:38:39.041Z,2.07
2024-04-14T09:41:06.810Z,2.23
2024-04-14T09:43:50.735Z,2.40
2024-04-14T09:46:23.327Z,2.50
2024-04-14T09:49:01.010Z,2.80
2024-04-14T09:51:30.120Z,2.03
2024-04-14T09:54:13.957Z,2.23
2024-04-14T09:56:48.635Z,2.47
2024-04-14T09:59:39.020Z,2.30
2024-04-14T10:02:12.981Z,2.13
2024-04-14T10:05:11.006Z,2.10
2024-04-14T10:07:38.713Z,2.27
2024-04-14T10:10:16.313Z,2.33
2024-04-14T10:12:49.080Z,1.93
2024-04-14T10:15:32.869Z,2.40
2024-04-14T10:18:12.547Z,2.10
2024-04-14T10:20:51.869Z,2.40
2024-04-14T10:23:21.507Z,2.07
2024-04-14T10:26:05.975Z,2.33
2024-04-14T10:28:39.348Z,2.00
2024-04-14T10:31:12.537Z,2.00
2024-04-14T10:33:51.669Z,1.77
2024-04-14T10:36:25.880Z,1.93
2024-04-14T10:39:06.265Z,1.90
2024-04-14T10:41:36.566Z,1.90
2024-04-14T10:44:30.679Z,2.33
2024-04-14T10:47:07.820Z,1.80
2024-04-14T10:49:45.022Z,1.80
2024-04-14T10:52:14.292Z,1.90
2024-04-14T10:54:48.584Z,1.53
2024-04-14T10:57:17.981Z,1.67
2024-04-14T10:59:56.189Z,1.70
2024-04-14T11:02:29.622Z,1.87
2024-04-14T11:05:10.400Z,1.87
2024-04-14T11:07:47.832Z,1.63
2024-04-14T11:10:21.065Z,2.07
2024-04-14T11:12:58.230Z,1.60
2024-04-14T11:15:37.152Z,1.70
2024-04-14T11:18:10.829Z,1.80
2024-04-14T11:20:50.811Z,1.60
2024-04-14T11:23:32.585Z,2.00
2024-04-14T11:26:06.380Z,1.93
2024-04-14T11:28:37.266Z,1.70
2024-04-14T11:31:10.342Z,1.87
2024-04-14T11:33:44.124Z,1.77
2024-04-14T11:36:24.836Z,1.60
2024-04-14T11:38:59.857Z,1.47
2024-04-14T11:41:34.515Z,1.90
2024-04-14T11:44:02.565Z,1.60
2024-04-14T11:46:39.936Z,1.70
2024-04-14T11:49:13.095Z,1.53
2024-04-14T11:52:03.290Z,1.90
2024-04-14T11:57:21.016Z,1.40
2024-04-14T11:59:53.358Z,1.57
2024-04-14T12:02:32.793Z,1.43
2024-04-14T12:05:06.456Z,1.60
2024-04-14T12:07:45.887Z,1.63
2024-04-14T12:10:14.432Z,1.87
2024-04-14T12:12:46.486Z,1.47
2024-04-14T12:18:11.264Z,1.40
2024-04-14T12:20:58.309Z,1.50
2024-04-14T12:23:34.189Z,1.37
2024-04-14T12:26:03.072Z,1.77
2024-04-14T12:28:37.534Z,1.50
2024-04-14T12:31:07.606Z,1.07
2024-04-14T12:33:41.722Z,1.50
2024-04-14T12:36:13.974Z,1.70
2024-04-14T12:38:50.773Z,1.40
2024-04-14T12:41:19.260Z,1.60
2024-04-14T12:43:52.556Z,1.80
2024-04-14T12:46:26.714Z,1.50
2024-04-14T12:49:04.298Z,1.70
2024-04-14T12:51:40.126Z,1.87
2024-04-14T12:54:21.092Z,1.60
2024-04-14T12:56:54.333Z,2.17
2024-04-14T12:59:35.937Z,1.90
2024-04-14T13:02:13.554Z,1.80
2024-04-14T13:04:44.449Z,1.67
2024-04-14T13:07:33.150Z,1.83
2024-04-14T13:10:07.983Z,1.83
2024-04-14T13:12:38.670Z,1.57
2024-04-14T13:15:15.264Z,1.67
2024-04-14T13:17:43.585Z,1.80
2024-04-14T13:20:22.429Z,1.60
2024-04-14T13:23:02.005Z,1.80
2024-04-14T13:25:33.732Z,2.20
2024-04-14T13:28:06.825Z,1.90
2024-04-14T13:30:46.620Z,1.87
2024-04-14T13:33:17.566Z,1.70
2024-04-14T13:35:48.212Z,1.40
2024-04-14T13:38:24.587Z,1.50
2024-04-14T13:40:57.242Z,1.83
2024-04-14T13:43:28.360Z,1.93
2024-04-14T13:46:11.601Z,1.70
2024-04-14T13:48:39.204Z,1.50
2024-04-14T13:51:17.506Z,2.03
2024-04-14T13:53:53.375Z,1.80
2024-04-14T13:56:26.227Z,1.60
2024-04-14T13:58:56.971Z,2.10
2024-04-14T14:01:38.243Z,2.00
2024-04-14T14:04:09.151Z,2.27
2024-04-14T14:06:46.991Z,1.80
2024-04-14T14:09:20.668Z,1.83
2024-04-14T14:11:56.247Z,1.67
2024-04-14T14:14:26.926Z,1.53
2024-04-14T14:16:57.261Z,1.40
2024-04-14T14:19:28.837Z,1.80
2024-04-14T14:22:07.549Z,1.67
2024-04-14T14:24:40.335Z,1.80
2024-04-14T14:27:16.137Z,1.57
2024-04-14T14:29:47.087Z,1.60
2024-04-14T14:32:20.913Z,1.70
2024-04-14T14:35:15.946Z,1.60
2024-04-14T14:37:50.250Z,1.73
2024-04-14T14:40:28.313Z,1.23
2024-04-14T14:43:02.778Z,1.90
2024-04-14T14:45:35.072Z,1.80
2024-04-14T14:48:05.273Z,1.60
2024-04-14T14:50:36.980Z,1.63
2024-04-14T14:53:13.744Z,1.80
2024-04-14T14:55:46.880Z,1.37
2024-04-14T14:58:25.229Z,1.70
2024-04-14T15:01:02.175Z,1.57
2024-04-14T15:03:46.682Z,1.80
2024-04-14T15:06:20.269Z,1.80
2024-04-14T15:08:53.093Z,1.50
2024-04-14T15:11:31.619Z,1.67
2024-04-14T15:14:04.177Z,1.57
2024-04-14T15:16:41.536Z,1.80
2024-04-14T15:19:21.198Z,1.80
2024-04-14T15:22:04.789Z,1.70
2024-04-14T15:24:36.718Z,1.43
2024-04-14T15:27:13.508Z,1.40
2024-04-14T15:29:41.088Z,1.73
2024-04-14T15:32:19.665Z,1.50
2024-04-14T15:37:43.826Z,1.67
2024-04-14T15:40:17.004Z,1.67
2024-04-14T15:42:54.939Z,1.50
2024-04-14T15:45:37.698Z,1.77
2024-04-14T15:48:19.750Z,1.47
2024-04-14T15:50:52.976Z,1.67
2024-04-14T15:53:29.870Z,1.90
2024-04-14T15:56:01.932Z,1.90
2024-04-14T15:58:39.448Z,1.50
2024-04-14T16:01:08.795Z,1.70
2024-04-14T16:03:41.153Z,1.70
2024-04-14T16:06:12.110Z,1.30
2024-04-14T16:08:50.295Z,1.83
2024-04-14T16:11:20.318Z,1.70
2024-04-14T16:13:58.850Z,1.80
2024-04-14T16:16:28.638Z,1.43
2024-04-14T16:19:26.719Z,1.83
2024-04-14T16:21:59.761Z,1.77
2024-04-14T16:24:38.859Z,1.70
2024-04-14T16:27:16.804Z,1.87
2024-04-14T16:29:58.902Z,1.77
2024-04-14T16:32:28.420Z,1.80
2024-04-14T16:35:04.256Z,1.47
2024-04-14T16:37:34.138Z,1.70
2024-04-14T16:40:06.407Z,1.60
2024-04-14T16:42:36.359Z,1.47
2024-04-14T16:45:15.701Z,1.60
2024-04-14T16:47:45.484Z,1.47
2024-04-14T16:50:21.464Z,1.53
2024-04-14T16:52:52.963Z,1.60
2024-04-14T16:55:34.003Z,1.30
2024-04-14T16:58:02.555Z,1.60
2024-04-14T17:00:45.811Z,1.60
2024-04-14T17:03:16.351Z,1.67
2024-04-14T17:06:00.601Z,1.73
2024-04-14T17:08:29.468Z,1.27
2024-04-14T17:11:08.391Z,1.50
2024-04-14T17:13:39.179Z,1.57
2024-04-14T17:16:18.323Z,1.93
2024-04-14T17:18:50.720Z,2.00
2024-04-14T17:21:29.602Z,1.53
2024-04-14T17:23:59.836Z,1.77
2024-04-14T17:26:38.452Z,1.70
2024-04-14T17:29:08.178Z,1.60
2024-04-14T17:31:49.116Z,1.87
2024-04-14T17:37:12.302Z,1.80
2024-04-14T17:39:40.719Z,1.60
2024-04-14T17:42:15.618Z,1.90
2024-04-14T17:44:47.958Z,2.20
2024-04-14T17:47:39.992Z,1.30
2024-04-14T17:50:12.442Z,1.60
2024-04-14T17:52:49.023Z,1.73
2024-04-14T17:55:19.208Z,1.90
2024-04-14T17:57:53.119Z,2.00
2024-04-14T18:00:23.091Z,2.00
2024-04-14T18:03:09.149Z,1.90
2024-04-14T18:05:39.323Z,2.60
2024-04-14T18:08:14.918Z,2.27
2024-04-14T18:10:45.193Z,1.80
2024-04-14T18:13:17.499Z,2.20
2024-04-14T18:15:45.778Z,2.10
2024-04-14T18:18:35.185Z,2.30
2024-04-14T18:21:05.054Z,1.93
2024-04-14T18:23:46.789Z,2.10
2024-04-14T18:26:14.169Z,1.63
2024-04-14T18:28:55.403Z,2.27
2024-04-14T18:31:24.855Z,1.60
2024-04-14T18:34:00.072Z,2.47
2024-04-14T18:36:33.163Z,1.97
2024-04-14T18:39:11.814Z,2.07
2024-04-14T18:41:42.824Z,1.70
2024-04-14T18:44:18.660Z,3.17
2024-04-14T18:46:47.642Z,4.20
2024-04-14T18:49:28.787Z,2.93
2024-04-14T18:51:57.651Z,2.57
2024-04-14T18:54:37.041Z,1.60
2024-04-14T18:57:05.596Z,2.03
2024-04-14T18:59:46.372Z,1.67
2024-04-14T19:02:15.114Z,1.83
2024-04-14T19:04:53.599Z,2.03
2024-04-14T19:07:23.585Z,2.17
2024-04-14T19:10:02.739Z,2.43
2024-04-14T19:12:32.582Z,2.00
2024-04-14T19:15:04.499Z,1.80
2024-04-14T19:17:33.259Z,1.87
2024-04-14T19:20:14.819Z,2.00
2024-04-14T19:22:43.948Z,2.23
2024-04-14T19:25:19.222Z,1.80
2024-04-14T19:27:47.654Z,2.17
2024-04-14T19:30:25.092Z,2.10
2024-04-14T19:32:52.773Z,2.03
2024-04-14T19:35:36.868Z,1.77
2024-04-14T19:38:14.497Z,2.30
2024-04-14T19:40:57.708Z,2.10
2024-04-14T19:43:31.053Z,2.00
2024-04-14T19:45:59.795Z,2.37
2024-04-14T19:48:38.770Z,2.10
2024-04-14T19:51:16.033Z,2.20
2024-04-14T19:53:52.046Z,2.10
2024-04-14T19:56:20.602Z,1.83
2024-04-14T19:58:56.412Z,2.10
2024-04-14T20:01:26.842Z,2.47
2024-04-14T20:04:04.892Z,2.50
2024-04-14T20:06:37.028Z,2.90
2024-04-14T20:09:11.317Z,3.10
2024-04-14T20:11:41.138Z,3.07
2024-04-14T20:14:20.289Z,2.60
2024-04-14T20:16:49.419Z,2.87
2024-04-14T20:19:20.924Z,2.70
2024-04-14T20:21:57.271Z,2.33
2024-04-14T20:24:35.304Z,2.80
2024-04-14T20:27:08.119Z,3.20
2024-04-14T20:29:43.546Z,2.77
2024-04-14T20:32:14.743Z,3.20
2024-04-14T20:34:47.590Z,2.50
2024-04-14T20:37:20.926Z,2.90
2024-04-14T20:39:54.290Z,2.83
2024-04-14T20:42:23.313Z,3.17
2024-04-14T20:45:02.067Z,2.37
2024-04-14T20:47:30.617Z,3.13
2024-04-14T20:50:07.240Z,2.90
2024-04-14T20:52:41.363Z,3.37
2024-04-14T20:55:19.096Z,2.53
2024-04-14T20:57:50.944Z,2.40
2024-04-14T21:00:30.697Z,2.83
2024-04-14T21:02:59.256Z,2.80
2024-04-14T21:05:34.690Z,2.60
2024-04-14T21:08:07.331Z,3.43
2024-04-14T21:10:41.887Z,2.80
2024-04-14T21:13:13.171Z,2.93
2024-04-14T21:15:47.950Z,2.47
2024-04-14T21:18:18.408Z,3.50
2024-04-14T21:20:58.174Z,2.80
2024-04-14T21:23:31.985Z,2.70
2024-04-14T21:26:04.772Z,2.53
2024-04-14T21:28:34.299Z,4.67
2024-04-14T21:31:12.595Z,4.50
2024-04-14T21:33:44.446Z,5.00
2024-04-14T21:36:17.099Z,4.57
2024-04-14T21:38:50.894Z,3.90
2024-04-14T21:41:24.754Z,3.20
2024-04-14T21:43:52.232Z,3.40
2024-04-14T21:46:39.196Z,3.30
2024-04-14T21:49:06.737Z,3.17
2024-04-14T21:51:41.274Z,3.70
2024-04-14T21:54:10.934Z,2.77
2024-04-14T21:56:45.700Z,3.37
2024-04-14T21:59:19.025Z,2.97
2024-04-14T22:02:00.548Z,3.53
2024-04-14T22:04:28.492Z,3.47
2024-04-14T22:07:04.874Z,3.77
2024-04-14T22:09:39.519Z,3.33
2024-04-14T22:12:17.770Z,3.10
2024-04-14T22:14:45.642Z,3.40
2024-04-14T22:17:19.324Z,3.00
2024-04-14T22:19:50.651Z,3.80
2024-04-14T22:22:26.745Z,3.27
2024-04-14T22:25:00.490Z,3.00
2024-04-14T22:27:43.483Z,3.63
2024-04-14T22:30:11.741Z,2.87
2024-04-14T22:32:47.165Z,3.33
2024-04-14T22:35:17.974Z,3.27
2024-04-14T22:37:53.938Z,3.27
2024-04-14T22:40:33.425Z,3.17
2024-04-14T22:43:09.680Z,3.00
2024-04-14T22:45:41.945Z,3.10
2024-04-14T22:48:16.081Z,2.93
2024-04-14T22:50:46.291Z,4.00
2024-04-14T22:53:24.800Z,3.40
2024-04-14T22:55:57.262Z,3.10
2024-04-14T22:58:31.196Z,3.80
2024-04-14T23:01:06.125Z,3.23
2024-04-14T23:03:40.007Z,3.50
2024-04-14T23:06:12.618Z,3.63
2024-04-14T23:08:47.027Z,3.87
2024-04-14T23:11:31.626Z,3.97
2024-04-14T23:14:06.603Z,4.23
2024-04-14T23:16:33.999Z,4.17
2024-04-14T23:19:06.853Z,3.33
2024-04-14T23:21:36.961Z,4.10
2024-04-14T23:24:07.194Z,3.70
2024-04-14T23:26:39.292Z,3.23
2024-04-14T23:29:18.332Z,3.87
2024-04-14T23:31:47.572Z,3.23
2024-04-14T23:34:19.792Z,4.47
2024-04-14T23:36:50.354Z,4.10
2024-04-14T23:39:29.320Z,3.50
2024-04-14T23:41:58.958Z,3.43
2024-04-14T23:44:42.490Z,3.33
2024-04-14T23:47:24.934Z,3.60
2024-04-14T23:49:53.383Z,3.50
2024-04-14T23:52:29.782Z,3.40
2024-04-14T23:54:58.200Z,3.40
2024-04-14T23:57:50.655Z,3.47
